createdAt,value
2019-04-21T14:36:05.220Z,4.90
2019-04-21T14:38:54.463Z,5.13
2019-04-21T14:41:44.290Z,4.70
2019-04-21T14:44:33.325Z,4.67
2019-04-21T14:47:23.361Z,4.57
2019-04-21T14:50:30.650Z,4.07
2019-04-21T14:53:23.568Z,4.00
2019-04-21T14:56:13.261Z,4.13
2019-04-21T14:59:04.000Z,4.67
2019-04-21T15:01:53.668Z,3.70
2019-04-21T15:04:43.816Z,3.50
2019-04-21T15:07:33.081Z,3.20
2019-04-21T15:10:26.088Z,3.47
2019-04-21T15:13:12.065Z,4.43
2019-04-21T15:16:02.636Z,3.60
2019-04-21T15:18:51.109Z,3.40
2019-04-21T15:21:40.500Z,3.50
2019-04-21T15:24:30.141Z,3.20
2019-04-21T15:27:19.025Z,3.30
2019-04-21T15:30:10.896Z,3.77
2019-04-21T15:33:00.392Z,3.20
2019-04-21T15:35:49.230Z,3.37
2019-04-21T15:38:38.060Z,3.23
2019-04-21T15:41:26.808Z,4.73
2019-04-21T15:44:16.461Z,3.50
2019-04-21T15:47:06.096Z,2.90
2019-04-21T15:50:02.454Z,4.03
2019-04-21T15:52:47.564Z,3.90
2019-04-21T15:55:44.397Z,3.70
2019-04-21T15:58:43.472Z,3.57
2019-04-21T16:01:39.042Z,3.13
2019-04-21T16:04:28.603Z,3.77
2019-04-21T16:07:18.070Z,3.30
2019-04-21T16:10:11.828Z,3.47
2019-04-21T16:13:01.458Z,3.13
2019-04-21T16:15:50.563Z,3.80
2019-04-21T16:18:38.700Z,2.93
2019-04-21T16:21:29.246Z,3.17
2019-04-21T16:24:18.384Z,2.63
2019-04-21T16:27:10.380Z,2.63
2019-04-21T16:29:57.644Z,2.23
2019-04-21T16:32:48.237Z,3.30
2019-04-21T16:35:37.826Z,3.00
2019-04-21T16:38:26.855Z,3.00
2019-04-21T16:41:16.167Z,2.70
2019-04-21T16:44:05.164Z,2.90
2019-04-21T16:46:54.080Z,2.90
2019-04-21T16:49:43.665Z,2.77
2019-04-21T16:52:34.319Z,3.10
2019-04-21T16:55:39.355Z,3.07
2019-04-21T16:58:30.732Z,2.50
2019-04-21T17:01:24.230Z,2.70
2019-04-21T17:04:13.667Z,2.87
2019-04-21T17:07:02.949Z,2.50
2019-04-21T17:09:52.780Z,2.40
2019-04-21T17:12:41.842Z,2.77
2019-04-21T17:15:48.718Z,2.60
2019-04-21T17:18:36.834Z,2.97
2019-04-21T17:21:13.206Z,2.40
2019-04-21T17:24:02.108Z,2.53
2019-04-21T17:26:51.422Z,2.37
2019-04-21T17:29:40.929Z,3.10
2019-04-21T17:32:35.636Z,2.17
2019-04-21T17:35:21.121Z,2.07
2019-04-21T17:38:12.115Z,2.50
2019-04-21T17:41:14.184Z,2.47
2019-04-21T17:43:51.032Z,2.57
2019-04-21T17:46:46.490Z,2.50
2019-04-21T17:49:30.930Z,1.70
2019-04-21T17:52:35.278Z,2.47
2019-04-21T17:55:28.327Z,2.40
2019-04-21T17:58:29.203Z,2.90
2019-04-21T18:01:29.042Z,2.50
2019-04-21T18:04:21.213Z,2.27
2019-04-21T18:07:05.078Z,2.30
2019-04-21T18:10:05.669Z,2.50
2019-04-21T18:12:45.893Z,2.63
2019-04-21T18:15:41.226Z,2.70
2019-04-21T18:18:16.624Z,2.50
2019-04-21T18:21:10.205Z,2.20
2019-04-21T18:24:07.347Z,2.03
2019-04-21T18:26:57.320Z,2.17
2019-04-21T18:29:44.442Z,2.33
2019-04-21T18:32:38.490Z,2.30
2019-04-21T18:35:29.291Z,1.90
2019-04-21T18:38:24.332Z,2.27
2019-04-21T18:41:09.784Z,1.90
2019-04-21T18:44:32.199Z,2.00
2019-04-21T18:47:25.715Z,1.80
2019-04-21T18:49:58.406Z,1.67
2019-04-21T18:53:03.330Z,1.93
2019-04-21T18:55:45.127Z,1.97
2019-04-21T18:58:30.672Z,1.90
2019-04-21T19:01:26.287Z,2.20
2019-04-21T19:04:15.506Z,1.83
2019-04-21T19:07:12.760Z,2.27
2019-04-21T19:16:03.244Z,1.63
2019-04-21T19:19:04.097Z,2.27
2019-04-21T19:21:24.459Z,2.10
2019-04-21T19:24:24.361Z,2.13
2019-04-21T19:27:11.746Z,1.87
2019-04-21T19:30:08.571Z,2.23
2019-04-21T19:32:46.681Z,1.40
2019-04-21T19:35:21.399Z,2.03
2019-04-21T19:38:13.718Z,1.97
2019-04-21T19:41:15.833Z,1.93
2019-04-21T19:44:09.325Z,1.97
2019-04-21T19:46:58.368Z,1.90
2019-04-21T19:49:58.383Z,2.37
2019-04-21T19:52:34.690Z,2.07
2019-04-21T19:55:14.119Z,1.83
2019-04-21T19:58:03.177Z,1.50
2019-04-21T20:00:55.610Z,2.07
2019-04-21T20:03:47.979Z,1.80
2019-04-21T20:06:47.625Z,1.90
2019-04-21T20:09:43.227Z,2.00
2019-04-21T20:12:35.588Z,1.57
2019-04-21T20:15:31.319Z,1.50
2019-04-21T20:18:07.129Z,1.87
2019-04-21T20:20:48.241Z,1.80
2019-04-21T20:23:40.619Z,1.70
2019-04-21T20:26:30.377Z,1.60
2019-04-21T20:29:38.958Z,1.87
2019-04-21T20:35:22.487Z,1.83
2019-04-21T20:38:01.780Z,1.50
2019-04-21T20:40:45.370Z,1.50
2019-04-21T20:43:45.582Z,1.77
2019-04-21T20:46:36.834Z,1.40
2019-04-21T20:49:19.147Z,1.60
2019-04-21T20:52:17.534Z,1.27
2019-04-21T20:55:03.556Z,1.67
2019-04-21T20:57:51.483Z,1.40
2019-04-21T21:01:04.239Z,1.60
2019-04-21T21:03:39.400Z,1.93
2019-04-21T21:06:27.691Z,1.70
2019-04-21T21:09:14.154Z,1.40
2019-04-21T21:12:27.623Z,1.37
2019-04-21T21:14:49.974Z,1.50
2019-04-21T21:17:54.975Z,1.90
2019-04-21T21:20:35.478Z,1.83
2019-04-21T21:23:26.120Z,1.60
2019-04-21T21:26:21.912Z,1.70
2019-04-21T21:29:00.339Z,1.67
2019-04-21T21:32:06.757Z,1.63
2019-04-21T21:34:54.679Z,1.90
2019-04-21T21:37:36.339Z,1.57
2019-04-21T21:40:26.764Z,1.40
2019-04-21T21:43:07.061Z,1.00
2019-04-21T21:45:56.119Z,2.10
2019-04-21T21:48:54.121Z,1.87
2019-04-21T21:51:42.908Z,1.70
2019-04-21T21:54:22.107Z,1.60
2019-04-21T21:57:12.438Z,1.77
2019-04-21T22:00:04.730Z,1.30
2019-04-21T22:02:54.902Z,1.70
2019-04-21T22:05:50.388Z,1.67
2019-04-21T22:08:32.274Z,1.60
2019-04-21T22:11:22.143Z,1.57
2019-04-21T22:14:17.122Z,1.53
2019-04-21T22:17:16.199Z,2.20
2019-04-21T22:20:08.459Z,1.40
2019-04-21T22:22:53.638Z,1.70
2019-04-21T22:25:33.837Z,1.80
2019-04-21T22:28:22.030Z,2.50
2019-04-21T22:31:15.035Z,1.73
2019-04-21T22:34:05.191Z,1.80
2019-04-21T22:37:01.520Z,1.77
2019-04-21T22:39:53.319Z,1.87
2019-04-21T22:42:35.135Z,1.60
2019-04-21T22:45:23.123Z,1.63
2019-04-21T22:48:17.503Z,1.80
2019-04-21T22:51:03.019Z,1.80
2019-04-21T22:53:55.764Z,1.67
2019-04-21T22:56:54.024Z,1.77
2019-04-21T22:59:34.145Z,1.60
2019-04-21T23:02:28.598Z,1.70
2019-04-21T23:05:16.845Z,1.57
2019-04-21T23:08:07.059Z,1.97
2019-04-21T23:11:00.931Z,1.40
2019-04-21T23:13:55.016Z,1.40
2019-04-21T23:16:39.863Z,1.37
2019-04-21T23:19:41.099Z,1.47
2019-04-21T23:22:32.575Z,1.70
2019-04-21T23:25:28.170Z,1.70
2019-04-21T23:28:12.725Z,1.63
2019-04-21T23:31:06.913Z,1.83
2019-04-21T23:33:38.129Z,1.97
2019-04-21T23:36:31.387Z,2.00
2019-04-21T23:39:24.736Z,1.50
2019-04-21T23:42:06.736Z,1.57
2019-04-21T23:44:58.156Z,2.30
2019-04-21T23:47:57.738Z,1.60
2019-04-21T23:50:45.900Z,1.70
2019-04-21T23:53:25.648Z,2.17
2019-04-21T23:56:21.700Z,1.80
2019-04-21T23:59:07.477Z,1.50
